Time;durP1;ratioP1;P1;durP2;ratioP2;P2;SDS_P1;SDS_P2;PMS_P1;PMS_P2;Temp;Humidity;BMP_temperature;BMP_pressure;BME280_temperature;BME280_humidity;BME280_pressure;Samples;Min_cycle;Max_cycle;Signal;HPM_P1;HPM_P2
2022/07/06 00:01:21;;;;;;;;;;;;;;;13.22;100.00;21387.59;5091593;28;19912;-81
2022/07/06 00:03:54;;;;;;;;;;;;;;;13.22;100.00;18734.47;5058122;28;19912;-84
2022/07/06 00:06:27;;;;;;;;;;;;;;;13.13;100.00;17736.31;5074770;28;19913;-84
2022/07/06 00:08:56;;;;;;;;;;;;;;;13.13;100.00;15086.25;5091112;28;19977;-85
2022/07/06 00:11:23;;;;;;;;;;;;;;;13.04;100.00;13758.66;5057338;28;19916;-81
2022/07/06 00:13:56;;;;;;;;;;;;;;;13.02;100.00;11110.88;5057306;28;19916;-80
2022/07/06 00:16:21;;;;;;;;;;;;;;;13.02;100.00;7804.69;5057794;28;19919;-84
2022/07/06 00:18:49;;;;;;;;;;;;;;;12.98;100.00;5160.72;5057321;28;20324;-85
2022/07/06 00:21:22;;;;;;;;;;;;;;;12.98;100.00;2849.72;5061476;28;20316;-84
2022/07/06 00:24:23;;;;;;;;;;;;;;;13.02;100.00;540.59;5095702;28;19964;-85
2022/07/06 00:26:50;;;;;;;;;;;;;;;12.97;100.00;-1438.59;5077552;28;19919;-83
2022/07/06 00:29:16;;;;;;;;;;;;;;;12.96;100.00;-3416.16;5059554;28;19920;-84
2022/07/06 00:31:48;;;;;;;;;;;;;;;12.86;100.00;-5063.69;5070562;28;19916;-84
2022/07/06 00:34:13;;;;;;;;;;;;;;;12.87;100.00;-6709.88;5072067;28;19934;-84
2022/07/06 00:36:39;;;;;;;;;;;;;;;12.86;100.00;-7697.25;5069127;28;20019;-85
2022/07/06 00:39:04;;;;;;;;;;;;;;;12.88;100.00;-8684.41;5037193;28;20277;-85
2022/07/06 00:41:30;;;;;;;;;;;;;;;12.78;100.00;-9342.06;5070160;28;20253;-80
2022/07/06 00:43:56;;;;;;;;;;;;;;;12.83;100.00;-10328.88;5036881;28;19959;-81
2022/07/06 00:46:24;;;;;;;;;;;;;;;12.88;100.00;-11315.56;5075030;28;19971;-80
2022/07/06 00:48:50;;;;;;;;;;;;;;;12.89;100.00;-12959.25;5094427;28;20373;-80
2022/07/06 00:51:17;;;;;;;;;;;;;;;12.89;100.00;-15587.53;5057353;28;20443;-81
2022/07/06 00:54:00;;;;;;;;;;;;;;;12.82;100.00;-16243.31;5094867;28;19912;-80
2022/07/06 00:56:43;;;;;;;;;;;;;;;12.78;100.00;-16899.28;5063286;28;19926;-80
2022/07/06 00:59:11;;;;;;;;;;;;;;;12.76;100.00;-17227.22;5077353;28;20245;-82
2022/07/06 01:01:44;;;;;;;;;;;;;;;12.75;100.00;-17555.34;5055473;28;19921;-85
2022/07/06 01:04:24;;;;;;;;;;;;;;;12.77;100.00;-17883.75;5057202;28;19916;-82
2022/07/06 01:06:50;;;;;;;;;;;;;;;12.79;100.00;-18540.38;5074562;28;19920;-82
2022/07/06 01:09:17;;;;;;;;;;;;;;;12.80;100.00;-18540.47;5072800;28;19922;-83
2022/07/06 01:11:48;;;;;;;;;;;;;;;12.76;100.00;-19524.00;5072781;28;19928;-81
2022/07/06 01:14:18;;;;;;;;;;;;;;;12.77;100.00;-20180.19;5056547;28;19908;-81
2022/07/06 01:16:44;;;;;;;;;;;;;;;12.78;100.00;-21164.06;5056968;28;19960;-81
2022/07/06 01:19:11;;;;;;;;;;;;;;;12.77;100.00;-22475.13;5056035;28;19908;-81
2022/07/06 01:21:41;;;;;;;;;;;;;;;12.75;100.00;-23785.69;5056474;28;20235;-80
2022/07/06 01:24:08;;;;;;;;;;;;;;;12.72;100.00;-25095.16;5067664;28;19907;-80
2022/07/06 01:26:35;;;;;;;;;;;;;;;12.68;100.00;-25421.50;5076093;28;19923;-80
2022/07/06 01:29:19;;;;;;;;;;;;;;;12.64;100.00;-25422.25;5078687;28;19978;-79
2022/07/06 01:31:48;;;;;;;;;;;;;;;12.63;100.00;-25421.81;5093875;28;20356;-81
2022/07/06 01:34:20;;;;;;;;;;;;;;;12.60;100.00;-25421.09;5092981;28;19908;-79
2022/07/06 01:36:46;;;;;;;;;;;;;;;12.59;100.00;-25420.63;5073273;28;20010;-81
2022/07/06 01:39:12;;;;;;;;;;;;;;;12.58;100.00;-25420.50;5073721;28;19985;-79
2022/07/06 01:41:37;;;;;;;;;;;;;;;12.53;100.00;-25419.03;5072500;28;20509;-80
2022/07/06 01:44:13;;;;;;;;;;;;;;;12.51;100.00;-25418.44;5081987;28;20073;-81
2022/07/06 01:46:39;;;;;;;;;;;;;;;12.47;100.00;-25417.41;5075825;28;19912;-86
2022/07/06 01:49:05;;;;;;;;;;;;;;;12.52;100.00;-25418.75;5094039;28;20344;-84
2022/07/06 01:51:33;;;;;;;;;;;;;;;12.50;100.00;-25418.31;5075396;28;19908;-79
2022/07/06 01:54:12;;;;;;;;;;;;;;;12.48;100.00;-25417.56;5093841;28;19912;-85
2022/07/06 01:56:37;;;;;;;;;;;;;;;12.40;100.00;-25415.38;5070432;28;20398;-84
2022/07/06 01:59:03;;;;;;;;;;;;;;;12.37;100.00;-25414.50;5056350;28;19995;-84
2022/07/06 02:01:29;;;;;;;;;;;;;;;12.39;100.00;-25415.22;5073160;28;19916;-84
2022/07/06 02:03:59;;;;;;;;;;;;;;;12.39;100.00;-25415.09;5056248;28;19915;-85
2022/07/06 02:06:26;;;;;;;;;;;;;;;12.38;100.00;-25414.78;5075065;28;19912;-85
2022/07/06 02:08:54;;;;;;;;;;;;;;;12.40;100.00;-25415.38;5089598;28;20011;-86
2022/07/06 02:11:40;;;;;;;;;;;;;;;12.38;100.00;-25414.78;5061523;28;19920;-82
2022/07/06 02:14:05;;;;;;;;;;;;;;;12.36;100.00;-25414.22;5070485;28;20034;-81
2022/07/06 02:16:33;;;;;;;;;;;;;;;12.33;100.00;-25413.31;5093448;28;19962;-80
2022/07/06 02:19:00;;;;;;;;;;;;;;;12.26;100.00;-25411.28;5058050;28;19916;-81
2022/07/06 02:21:32;;;;;;;;;;;;;;;12.24;100.00;-25410.84;5076008;28;19923;-81
2022/07/06 02:24:00;;;;;;;;;;;;;;;12.23;100.00;-25410.56;5092775;28;19919;-81
2022/07/06 02:26:37;;;;;;;;;;;;;;;12.24;100.00;-25410.69;5070715;28;20019;-82
2022/07/06 02:29:14;;;;;;;;;;;;;;;12.20;100.00;-25409.81;5069413;28;19917;-82
2022/07/06 02:31:40;;;;;;;;;;;;;;;12.19;100.00;-25409.38;5070810;28;19924;-85
2022/07/06 02:34:15;;;;;;;;;;;;;;;12.18;100.00;-25409.09;5073052;28;19952;-85
2022/07/06 02:37:04;;;;;;;;;;;;;;;12.11;100.00;-25407.19;5088879;28;19923;-84
2022/07/06 02:39:34;;;;;;;;;;;;;;;12.13;100.00;-25407.78;5077274;28;19947;-83
2022/07/06 02:42:13;;;;;;;;;;;;;;;12.10;100.00;-25406.88;5051147;28;19982;-83
2022/07/06 02:44:41;;;;;;;;;;;;;;;12.10;100.00;-25406.88;5035314;28;19916;-82
2022/07/06 02:47:07;;;;;;;;;;;;;;;12.08;100.00;-25406.31;5068453;28;19916;-83
2022/07/06 02:49:35;;;;;;;;;;;;;;;12.12;100.00;-25407.31;5073180;28;19913;-82
2022/07/06 02:52:02;;;;;;;;;;;;;;;12.12;100.00;-25407.47;5088887;28;19948;-83
2022/07/06 02:54:41;;;;;;;;;;;;;;;12.10;100.00;-25406.88;5088727;28;19917;-84
2022/07/06 02:57:07;;;;;;;;;;;;;;;12.08;100.00;-25406.31;5055481;28;19922;-84
2022/07/06 02:59:33;;;;;;;;;;;;;;;12.05;100.00;-25405.44;5089119;28;19916;-85
2022/07/06 03:02:00;;;;;;;;;;;;;;;12.10;100.00;-25406.75;5055625;28;20296;-84
2022/07/06 03:04:42;;;;;;;;;;;;;;;12.08;100.00;-25406.16;5037404;28;19912;-84
2022/07/06 03:07:07;;;;;;;;;;;;;;;11.99;100.00;-25403.66;5055731;28;19923;-83
2022/07/06 03:09:33;;;;;;;;;;;;;;;11.99;100.00;-25403.66;5072608;28;20296;-86
2022/07/06 03:12:01;;;;;;;;;;;;;;;11.98;100.00;-25403.38;5043332;28;20407;-80
2022/07/06 03:14:27;;;;;;;;;;;;;;;12.00;100.00;-25404.13;5073514;28;20007;-80
2022/07/06 03:17:16;;;;;;;;;;;;;;;12.01;100.00;-25404.25;5076294;28;19917;-82
2022/07/06 03:19:47;;;;;;;;;;;;;;;11.99;100.00;-25403.81;5092187;28;19912;-82
2022/07/06 03:22:14;;;;;;;;;;;;;;;11.99;100.00;-25403.66;5096845;28;19966;-81
2022/07/06 03:24:41;;;;;;;;;;;;;;;12.03;100.00;-25404.84;5061553;28;19916;-81
2022/07/06 03:27:31;;;;;;;;;;;;;;;12.05;100.00;-25405.44;5060243;28;20607;-81
2022/07/06 03:30:14;;;;;;;;;;;;;;;12.07;100.00;-25406.00;5095702;28;19923;-82
2022/07/06 03:32:41;;;;;;;;;;;;;;;12.05;100.00;-25405.44;5071972;28;19920;-80
2022/07/06 03:35:07;;;;;;;;;;;;;;;12.04;100.00;-25405.13;5070735;28;20152;-85
2022/07/06 03:37:37;;;;;;;;;;;;;;;12.00;100.00;-25404.13;5096469;28;19912;-85
2022/07/06 03:40:06;;;;;;;;;;;;;;;12.04;100.00;-25405.13;5096461;28;20388;-84
2022/07/06 03:42:39;;;;;;;;;;;;;;;12.07;100.00;-25406.00;5077766;28;19916;-83
2022/07/06 03:45:05;;;;;;;;;;;;;;;12.10;100.00;-25406.88;5077997;28;19912;-85
2022/07/06 03:47:30;;;;;;;;;;;;;;;12.14;100.00;-25407.91;5049370;28;19980;-78
2022/07/06 03:49:56;;;;;;;;;;;;;;;12.15;100.00;-25408.22;5077931;28;19961;-85
2022/07/06 03:52:21;;;;;;;;;;;;;;;12.17;100.00;-25408.78;5077737;28;20648;-83
2022/07/06 03:54:49;;;;;;;;;;;;;;;12.23;100.00;-25410.41;5095243;28;19938;-84
2022/07/06 03:57:16;;;;;;;;;;;;;;;12.23;100.00;-25410.56;5093501;28;19912;-80
2022/07/06 03:59:41;;;;;;;;;;;;;;;12.32;100.00;-25413.03;5075289;28;19911;-81
2022/07/06 04:02:08;;;;;;;;;;;;;;;12.38;100.00;-25414.78;5075431;28;19938;-79
2022/07/06 04:04:38;;;;;;;;;;;;;;;12.47;100.00;-25417.41;5057173;28;20508;-80
2022/07/06 04:07:04;;;;;;;;;;;;;;;12.54;100.00;-25419.31;5091149;28;19912;-79
2022/07/06 04:09:30;;;;;;;;;;;;;;;12.62;100.00;-25421.53;5057385;28;19921;-80
2022/07/06 04:11:55;;;;;;;;;;;;;;;12.73;100.00;-25424.72;5057089;28;20289;-80
2022/07/06 04:14:31;;;;;;;;;;;;;;;12.78;100.00;-25426.19;5074972;28;20011;-80
2022/07/06 04:16:58;;;;;;;;;;;;;;;12.84;100.00;-25426.03;5084891;28;19920;-85
2022/07/06 04:19:23;;;;;;;;;;;;;;;12.93;100.00;-25101.03;5073586;28;20410;-80
2022/07/06 04:21:49;;;;;;;;;;;;;;;13.04;100.00;-24448.63;5072109;28;19920;-81
2022/07/06 04:24:21;;;;;;;;;;;;;;;13.08;100.00;-22482.69;5079810;28;20287;-79
2022/07/06 04:26:46;;;;;;;;;;;;;;;13.23;100.00;-21502.09;5060277;28;19916;-79
2022/07/06 04:29:11;;;;;;;;;;;;;;;13.31;100.00;-19862.78;5077275;28;19916;-81
2022/07/06 04:31:36;;;;;;;;;;;;;;;13.43;100.00;-18551.66;5076811;28;19912;-81
2022/07/06 04:34:10;;;;;;;;;;;;;;;13.56;100.00;-17239.63;5077182;28;19963;-80
2022/07/06 04:36:35;;;;;;;;;;;;;;;13.67;100.00;-15268.59;5077066;28;20007;-80
2022/07/06 04:39:02;;;;;;;;;;;;;;;13.64;100.00;-13294.81;5077670;28;19965;-81
2022/07/06 04:41:27;;;;;;;;;;;;;;;13.76;100.00;-12308.53;5076377;28;20225;-81
2022/07/06 04:43:53;;;;;;;;;;;;;;;13.84;100.00;-9674.66;5075981;28;20003;-81
2022/07/06 04:46:19;;;;;;;;;;;;;;;13.94;100.00;-8027.28;5073750;28;19918;-80
2022/07/06 04:48:44;;;;;;;;;;;;;;;13.95;100.00;-6378.81;5094540;28;19995;-80
2022/07/06 04:51:11;;;;;;;;;;;;;;;13.98;100.00;-5389.31;5059933;28;20014;-80
2022/07/06 04:53:37;;;;;;;;;;;;;;;13.96;100.00;-5389.38;5067838;28;19911;-82
2022/07/06 04:56:02;;;;;;;;;;;;;;;14.10;100.00;-3738.94;5074441;28;19918;-84
2022/07/06 04:58:28;;;;;;;;;;;;;;;14.11;100.00;-767.00;5076379;28;19912;-80
2022/07/06 05:00:53;;;;;;;;;;;;;;;14.15;100.00;1216.06;5075414;28;20050;-80
2022/07/06 05:03:21;;;;;;;;;;;;;;;14.22;100.00;3531.47;5076432;28;19912;-81
2022/07/06 05:05:47;;;;;;;;;;;;;;;14.26;100.00;5848.31;5075899;28;19978;-82
2022/07/06 05:08:13;;;;;;;;;;;;;;;14.32;100.00;5849.72;5058158;28;19991;-79
2022/07/06 05:10:38;;;;;;;;;;;;;;;14.35;100.00;5188.38;5056098;28;20026;-79
2022/07/06 05:13:11;;;;;;;;;;;;;;;14.33;100.00;4195.22;5074175;28;19919;-81
2022/07/06 05:15:37;;;;;;;;;;;;;;;14.39;100.00;4858.03;5054839;28;19920;-80
2022/07/06 05:18:02;;;;;;;;;;;;;;;14.33;100.00;6180.97;5072477;28;19916;-81
2022/07/06 05:20:28;;;;;;;;;;;;;;;14.42;100.00;7507.31;5082170;28;19987;-81
2022/07/06 05:22:54;;;;;;;;;;;;;;;14.34;100.00;9493.06;5035534;28;19917;-80
2022/07/06 05:25:19;;;;;;;;;;;;;;;14.44;100.00;10821.31;5052536;28;20019;-80
2022/07/06 05:27:45;;;;;;;;;;;;;;;14.46;100.00;12479.78;5077426;28;20078;-81
2022/07/06 05:30:10;;;;;;;;;;;;;;;14.57;100.00;10493.66;5089549;28;20390;-81
2022/07/06 05:32:38;;;;;;;;;;;;;;;14.73;100.00;10166.59;5055477;28;19916;-81
2022/07/06 05:35:03;;;;;;;;;;;;;;;14.91;100.00;10503.34;5089869;28;20006;-81
2022/07/06 05:37:28;;;;;;;;;;;;;;;15.20;100.00;12835.50;5072596;28;19948;-77
2022/07/06 05:39:53;;;;;;;;;;;;;;;15.49;100.00;16168.22;5067897;28;20026;-82
2022/07/06 05:42:19;;;;;;;;;;;;;;;15.84;100.00;20508.69;5067307;28;19920;-78
2022/07/06 05:44:46;;;;;;;;;;;;;;;16.15;100.00;30198.38;5087098;28;19916;-79
2022/07/06 05:50:13;;;;;;;;;;;;;;;16.86;100.00;69564.13;5091544;28;19923;-75
2022/07/06 05:52:41;;;;;;;;;;;;;;;16.86;100.00;99058.25;5075825;28;19916;-77
2022/07/06 05:55:07;;;;;;;;;;;;;;;17.04;100.00;121272.44;5056064;28;20003;-77
2022/07/06 05:57:33;;;;;;;;;;;;;;;17.26;100.00;147069.91;5087365;28;20266;-76
2022/07/06 05:59:58;;;;;;;;;;;;;;;17.17;100.00;147049.47;5080743;28;20198;-76
2022/07/06 06:02:24;;;;;;;;;;;;;;;17.22;100.00;147062.22;5036275;28;19924;-78
2022/07/06 06:04:51;;;;;;;;;;;;;;;17.07;100.00;147022.63;5058802;28;19950;-75
2022/07/06 06:07:16;;;;;;;;;;;;;;;17.05;100.00;147020.06;5064992;28;19919;-77
2022/07/06 06:09:41;;;;;;;;;;;;;;;16.95;100.00;146994.53;5056948;28;20014;-76
2022/07/06 06:12:08;;;;;;;;;;;;;;;16.96;100.00;146997.03;5070728;28;20372;-76
2022/07/06 06:14:34;;;;;;;;;;;;;;;17.02;100.00;147012.38;5052694;28;19955;-75
2022/07/06 06:16:59;;;;;;;;;;;;;;;17.10;100.00;147030.28;5085748;28;19916;-81
2022/07/06 06:19:25;;;;;;;;;;;;;;;17.10;100.00;147030.28;5054233;28;19920;-75
2022/07/06 06:21:51;;;;;;;;;;;;;;;17.19;100.00;147054.56;5070912;28;19923;-76
2022/07/06 06:24:18;;;;;;;;;;;;;;;17.41;100.00;147108.25;5069025;28;19908;-76
2022/07/06 06:26:43;;;;;;;;;;;;;;;17.40;100.00;147107.00;5106394;28;19916;-76
2022/07/06 06:29:08;;;;;;;;;;;;;;;17.40;100.00;147105.69;5073259;28;20494;-75
2022/07/06 06:31:33;;;;;;;;;;;;;;;17.36;100.00;147095.47;5107258;28;20427;-76
2022/07/06 06:34:00;;;;;;;;;;;;;;;17.21;100.00;147059.72;5090590;28;19916;-76
2022/07/06 06:36:25;;;;;;;;;;;;;;;17.17;100.00;147048.19;5090215;28;19919;-77
2022/07/06 06:38:50;;;;;;;;;;;;;;;16.99;100.00;147003.44;5074625;28;19912;-76
2022/07/06 06:41:16;;;;;;;;;;;;;;;17.05;100.00;147018.78;5095641;28;19912;-74
2022/07/06 06:43:43;;;;;;;;;;;;;;;17.10;100.00;147030.28;5077043;28;19912;-75
2022/07/06 06:46:08;;;;;;;;;;;;;;;17.37;100.00;147098.00;5077515;28;19916;-80
2022/07/06 06:48:34;;;;;;;;;;;;;;;17.50;100.00;147130.00;5111490;28;20249;-77
2022/07/06 06:50:59;;;;;;;;;;;;;;;17.59;100.00;147153.03;5111547;28;19970;-79
2022/07/06 06:53:25;;;;;;;;;;;;;;;17.47;100.00;147123.59;5076904;28;19912;-78
2022/07/06 06:55:50;;;;;;;;;;;;;;;17.69;100.00;147177.31;5073742;28;19970;-81
2022/07/06 06:58:16;;;;;;;;;;;;;;;17.80;100.00;147205.41;5077407;28;19912;-78
2022/07/06 07:00:43;;;;;;;;;;;;;;;18.32;100.00;147333.34;5095429;28;19912;-79
2022/07/06 07:03:11;;;;;;;;;;;;;;;18.91;100.00;147480.53;5060786;28;19940;-77
2022/07/06 07:05:36;;;;;;;;;;;;;;;18.93;100.00;147486.97;5076825;28;19930;-78
2022/07/06 07:08:02;;;;;;;;;;;;;;;18.91;100.00;147481.84;5077170;28;20014;-81
2022/07/06 07:10:27;;;;;;;;;;;;;;;19.78;100.00;147696.94;5077792;28;19958;-81
2022/07/06 07:13:01;;;;;;;;;;;;;;;20.95;100.00;147990.34;5090619;28;19913;-82
2022/07/06 07:15:26;;;;;;;;;;;;;;;21.46;100.00;148117.25;5090671;28;20422;-81
2022/07/06 07:17:53;;;;;;;;;;;;;;;22.50;100.00;148376.44;5058411;28;19912;-81
2022/07/06 07:20:18;;;;;;;;;;;;;;;23.07;100.00;148517.56;5090714;28;20388;-79
2022/07/06 07:22:48;;;;;;;;;;;;;;;23.47;100.00;148619.00;5090840;28;19919;-77
2022/07/06 07:25:14;;;;;;;;;;;;;;;23.32;100.00;148579.22;5056871;28;20018;-78
2022/07/06 07:27:39;;;;;;;;;;;;;;;23.34;100.00;148584.34;5056646;28;19916;-79
2022/07/06 07:30:04;;;;;;;;;;;;;;;23.19;100.00;148547.13;5056700;28;19924;-80
2022/07/06 07:32:30;;;;;;;;;;;;;;;23.23;100.00;148558.69;5057187;28;20375;-79
2022/07/06 07:34:59;;;;;;;;;;;;;;;23.28;100.00;148571.50;5056711;28;20333;-75
2022/07/06 07:37:24;;;;;;;;;;;;;;;23.42;100.00;148604.91;5057786;28;19919;-80
2022/07/06 07:39:50;;;;;;;;;;;;;;;23.92;100.00;148730.75;5074530;28;19916;-78
2022/07/06 07:42:15;;;;;;;;;;;;;;;23.56;100.00;148639.56;5085601;28;19916;-80
2022/07/06 07:44:41;;;;;;;;;;;;;;;24.07;100.00;148768.00;5087945;28;19916;-76
2022/07/06 07:47:06;;;;;;;;;;;;;;;24.60;100.00;148900.34;5102008;28;19916;-82
2022/07/06 07:49:32;;;;;;;;;;;;;;;25.11;100.00;149027.56;5090466;28;19912;-80
2022/07/06 07:51:57;;;;;;;;;;;;;;;25.31;100.00;149076.44;5090767;28;19912;-80
2022/07/06 07:54:24;;;;;;;;;;;;;;;25.24;100.00;149060.94;5057369;28;19916;-79
2022/07/06 07:56:50;;;;;;;;;;;;;;;24.86;100.00;148965.88;5074724;28;19972;-80
2022/07/06 07:59:15;;;;;;;;;;;;;;;25.09;100.00;149022.41;5057298;28;19928;-81
2022/07/06 08:01:40;;;;;;;;;;;;;;;25.20;100.00;149049.38;5090598;28;19912;-78
2022/07/06 08:04:06;;;;;;;;;;;;;;;25.29;100.00;149072.56;5088109;28;19912;-75
2022/07/06 08:06:31;;;;;;;;;;;;;;;25.23;100.00;149057.09;5058158;28;19942;-76
2022/07/06 08:08:56;;;;;;;;;;;;;;;24.72;100.00;148931.19;5093700;28;19912;-77
2022/07/06 08:11:22;;;;;;;;;;;;;;;24.38;100.00;148845.09;5075257;28;20292;-75
2022/07/06 08:13:47;;;;;;;;;;;;;;;24.15;100.00;148787.28;5074318;28;20101;-75
2022/07/06 08:16:13;;;;;;;;;;;;;;;24.52;100.00;148879.78;5074238;28;20348;-76
2022/07/06 08:18:38;;;;;;;;;;;;;;;24.74;100.00;148935.03;5072687;28;20294;-76
2022/07/06 08:21:03;;;;;;;;;;;;;;;23.89;100.00;148721.78;5087855;28;20358;-75
2022/07/06 08:23:29;;;;;;;;;;;;;;;23.75;100.00;148687.06;5075154;28;19923;-78
2022/07/06 08:25:54;;;;;;;;;;;;;;;24.30;100.00;148824.50;5074156;28;20015;-75
2022/07/06 08:28:20;;;;;;;;;;;;;;;24.28;100.00;148819.38;5074693;28;19986;-78
2022/07/06 08:30:47;;;;;;;;;;;;;;;23.83;100.00;148708.91;5075020;28;19946;-81
2022/07/06 08:33:13;;;;;;;;;;;;;;;24.09;100.00;148773.13;5074612;28;19912;-80
2022/07/06 08:35:39;;;;;;;;;;;;;;;23.86;100.00;148715.34;5074636;28;19959;-80
2022/07/06 08:38:04;;;;;;;;;;;;;;;23.67;100.00;148669.06;5073185;28;19966;-78
2022/07/06 08:40:32;;;;;;;;;;;;;;;23.67;100.00;148669.06;5087897;28;19916;-77
2022/07/06 08:42:59;;;;;;;;;;;;;;;22.94;100.00;148485.47;5057742;28;19926;-76
2022/07/06 08:45:25;;;;;;;;;;;;;;;22.45;100.00;148363.63;5054748;28;19913;-75
2022/07/06 08:47:50;;;;;;;;;;;;;;;22.22;100.00;148307.09;5072287;28;19916;-75
2022/07/06 08:50:16;;;;;;;;;;;;;;;22.39;100.00;148349.47;5072583;28;19955;-75
2022/07/06 08:52:42;;;;;;;;;;;;;;;21.78;100.00;148195.50;5053950;28;19908;-78
2022/07/06 08:55:11;;;;;;;;;;;;;;;21.69;100.00;148175.00;5070394;28;19920;-75
2022/07/06 08:57:39;;;;;;;;;;;;;;;21.68;100.00;148172.44;5053267;28;19907;-75
2022/07/06 09:00:05;;;;;;;;;;;;;;;21.74;100.00;148186.56;5091730;28;20008;-75
2022/07/06 09:02:34;;;;;;;;;;;;;;;21.48;100.00;148122.38;5086978;28;20004;-77
2022/07/06 09:05:01;;;;;;;;;;;;;;;21.47;100.00;148119.84;5074750;28;19908;-75
2022/07/06 09:07:28;;;;;;;;;;;;;;;21.90;100.00;148226.28;5073613;28;19923;-75
2022/07/06 09:09:54;;;;;;;;;;;;;;;21.95;100.00;148239.09;5086516;28;20015;-75
2022/07/06 09:12:19;;;;;;;;;;;;;;;21.77;100.00;148194.25;5054881;28;19963;-76
2022/07/06 09:14:44;;;;;;;;;;;;;;;21.74;100.00;148186.56;5074797;28;19916;-73
2022/07/06 09:17:11;;;;;;;;;;;;;;;22.06;100.00;148266.03;5074089;28;19931;-76
2022/07/06 09:19:36;;;;;;;;;;;;;;;21.95;100.00;148237.84;5074408;28;19912;-75
2022/07/06 09:22:02;;;;;;;;;;;;;;;21.74;100.00;148185.28;5073908;28;19912;-75
2022/07/06 09:24:28;;;;;;;;;;;;;;;21.63;100.00;148158.34;5074137;28;19912;-76
2022/07/06 09:26:58;;;;;;;;;;;;;;;21.67;100.00;148169.91;5073893;28;19938;-75
2022/07/06 09:29:27;;;;;;;;;;;;;;;22.07;100.00;148267.34;5073766;28;20368;-75
2022/07/06 09:31:55;;;;;;;;;;;;;;;21.62;100.00;148157.03;5092016;28;20053;-75
2022/07/06 09:34:23;;;;;;;;;;;;;;;22.20;100.00;148302.00;5074020;28;19908;-81
2022/07/06 09:36:50;;;;;;;;;;;;;;;22.57;100.00;148393.09;5071362;28;19951;-82
2022/07/06 09:39:26;;;;;;;;;;;;;;;22.68;100.00;148420.03;5093038;28;19915;-79
2022/07/06 09:42:03;;;;;;;;;;;;;;;22.54;100.00;148386.72;5092770;28;19912;-82
2022/07/06 09:44:30;;;;;;;;;;;;;;;22.44;100.00;148361.03;5087251;28;19915;-79
2022/07/06 09:46:57;;;;;;;;;;;;;;;23.14;100.00;148535.59;5092535;28;19941;-77
2022/07/06 09:49:22;;;;;;;;;;;;;;;22.83;100.00;148458.53;5073852;28;19912;-78
2022/07/06 09:51:49;;;;;;;;;;;;;;;22.16;100.00;148291.72;5092382;28;19912;-82
2022/07/06 09:54:16;;;;;;;;;;;;;;;21.83;100.00;148209.63;5074723;28;19919;-76
2022/07/06 09:56:44;;;;;;;;;;;;;;;22.09;100.00;148273.75;5074612;28;19994;-78
2022/07/06 09:59:10;;;;;;;;;;;;;;;22.10;100.00;148276.31;5074872;28;19912;-82
2022/07/06 10:01:35;;;;;;;;;;;;;;;22.07;100.00;148267.34;5092976;28;19914;-82
2022/07/06 10:04:01;;;;;;;;;;;;;;;21.97;100.00;148244.28;5074979;28;19915;-82
2022/07/06 10:06:26;;;;;;;;;;;;;;;21.94;100.00;148235.25;5074573;28;19942;-82
2022/07/06 10:08:53;;;;;;;;;;;;;;;22.49;100.00;148373.84;5074777;28;19912;-78
2022/07/06 10:11:19;;;;;;;;;;;;;;;22.59;100.00;148398.19;5074777;28;19918;-81
2022/07/06 10:13:46;;;;;;;;;;;;;;;22.65;100.00;148413.59;5073330;28;20006;-77
2022/07/06 10:16:11;;;;;;;;;;;;;;;22.57;100.00;148394.34;5074850;28;19912;-82
2022/07/06 10:18:37;;;;;;;;;;;;;;;22.62;100.00;148405.91;5074180;28;19937;-80
2022/07/06 10:21:03;;;;;;;;;;;;;;;22.98;100.00;148495.75;5074818;28;20094;-80
2022/07/06 10:23:31;;;;;;;;;;;;;;;22.83;100.00;148457.25;5058270;28;19920;-83
2022/07/06 10:25:57;;;;;;;;;;;;;;;21.97;100.00;148242.94;5091364;28;20006;-81
2022/07/06 10:28:23;;;;;;;;;;;;;;;21.74;100.00;148186.56;5073849;28;19949;-84
2022/07/06 10:30:49;;;;;;;;;;;;;;;22.33;100.00;148334.09;5073957;28;19912;-75
2022/07/06 10:33:16;;;;;;;;;;;;;;;22.78;100.00;148445.72;5089543;28;19918;-75
2022/07/06 10:35:42;;;;;;;;;;;;;;;22.94;100.00;148486.75;5072350;28;19912;-77
2022/07/06 10:38:08;;;;;;;;;;;;;;;22.71;100.00;148427.75;5072332;28;19915;-78
2022/07/06 10:43:23;;;;;;;;;;;;;;;22.71;100.00;148429.00;5091638;28;19919;-75
2022/07/06 10:45:48;;;;;;;;;;;;;;;22.50;100.00;148375.16;5071551;28;19912;-77
2022/07/06 10:48:15;;;;;;;;;;;;;;;22.36;100.00;148340.53;5072838;28;19912;-74
2022/07/06 10:50:40;;;;;;;;;;;;;;;22.31;100.00;148328.97;5072886;28;19915;-76
2022/07/06 10:53:23;;;;;;;;;;;;;;;22.56;100.00;148390.56;5072867;28;20009;-76
2022/07/06 10:55:51;;;;;;;;;;;;;;;22.11;100.00;148278.91;5073015;28;19912;-77
2022/07/06 10:58:35;;;;;;;;;;;;;;;22.94;100.00;148486.75;5091388;28;19959;-75
2022/07/06 11:01:00;;;;;;;;;;;;;;;23.37;100.00;148593.34;5072730;28;19912;-76
2022/07/06 11:03:34;;;;;;;;;;;;;;;23.35;100.00;148588.19;5072759;28;20469;-77
2022/07/06 11:06:05;;;;;;;;;;;;;;;23.43;100.00;148607.44;5072898;28;19961;-75
2022/07/06 11:08:43;;;;;;;;;;;;;;;23.63;100.00;148658.81;5069939;28;20363;-77
2022/07/06 11:11:12;;;;;;;;;;;;;;;23.28;100.00;148571.50;5073341;28;19999;-76
2022/07/06 11:13:47;;;;;;;;;;;;;;;22.76;100.00;148441.88;5072497;28;19912;-77
2022/07/06 11:16:13;;;;;;;;;;;;;;;23.10;100.00;148525.31;5072853;28;20006;-75
2022/07/06 11:18:40;;;;;;;;;;;;;;;23.22;100.00;148554.84;5055968;28;19927;-75
2022/07/06 11:21:38;;;;;;;;;;;;;;;23.51;100.00;148628.00;5072541;28;19918;-75
2022/07/06 11:24:05;;;;;;;;;;;;;;;23.49;100.00;148622.84;5018321;28;19912;-75
2022/07/06 11:26:30;;;;;;;;;;;;;;;23.56;100.00;148640.84;5076777;28;19927;-77
2022/07/06 11:28:58;;;;;;;;;;;;;;;23.70;100.00;148674.25;5075877;28;19920;-75
2022/07/06 11:31:23;;;;;;;;;;;;;;;23.72;100.00;148679.34;5076351;28;20018;-79
2022/07/06 11:33:53;;;;;;;;;;;;;;;23.41;100.00;148602.31;5076119;28;20850;-79
2022/07/06 11:36:20;;;;;;;;;;;;;;;23.45;100.00;148612.59;5076620;28;19919;-75
2022/07/06 11:38:46;;;;;;;;;;;;;;;23.48;100.00;148620.31;5075902;28;20417;-76
2022/07/06 11:41:13;;;;;;;;;;;;;;;23.22;100.00;148556.09;5076440;28;19970;-76
2022/07/06 11:43:42;;;;;;;;;;;;;;;23.59;100.00;148647.28;5076105;28;19911;-77
2022/07/06 11:46:18;;;;;;;;;;;;;;;23.31;100.00;148577.94;5075107;28;19920;-76
2022/07/06 11:48:47;;;;;;;;;;;;;;;23.29;100.00;148572.81;5073137;28;20353;-78
2022/07/06 11:51:15;;;;;;;;;;;;;;;23.19;100.00;148547.13;5076381;28;19912;-74
2022/07/06 11:53:49;;;;;;;;;;;;;;;22.58;100.00;148395.66;5094198;28;19919;-76
2022/07/06 11:56:15;;;;;;;;;;;;;;;23.39;100.00;148597.19;5075510;28;19912;-76
2022/07/06 11:58:43;;;;;;;;;;;;;;;23.73;100.00;148681.94;5076108;28;20366;-75
2022/07/06 12:01:10;;;;;;;;;;;;;;;23.61;100.00;148652.38;5076259;28;19937;-77
2022/07/06 12:03:38;;;;;;;;;;;;;;;23.65;100.00;148663.94;5075957;28;19985;-80
2022/07/06 12:06:04;;;;;;;;;;;;;;;23.98;100.00;148746.16;5075968;28;20018;-79
2022/07/06 12:08:30;;;;;;;;;;;;;;;24.54;100.00;148886.16;5094577;28;19927;-77
2022/07/06 12:10:56;;;;;;;;;;;;;;;23.93;100.00;148732.06;5076159;28;20360;-76
2022/07/06 12:13:26;;;;;;;;;;;;;;;23.89;100.00;148721.78;5076389;28;19919;-76
2022/07/06 12:15:51;;;;;;;;;;;;;;;24.08;100.00;148769.28;5090735;28;19995;-78
2022/07/06 12:18:16;;;;;;;;;;;;;;;23.96;100.00;148741.03;5094029;28;19995;-80
2022/07/06 12:20:42;;;;;;;;;;;;;;;24.33;100.00;148832.19;5093629;28;19955;-77
2022/07/06 12:23:14;;;;;;;;;;;;;;;23.77;100.00;148693.50;5094452;28;19912;-80
2022/07/06 12:25:39;;;;;;;;;;;;;;;23.57;100.00;148642.09;5094076;28;19927;-79
2022/07/06 12:28:04;;;;;;;;;;;;;;;23.36;100.00;148589.50;5076031;28;19912;-77
2022/07/06 12:30:30;;;;;;;;;;;;;;;23.37;100.00;148592.03;5075864;28;19916;-81
2022/07/06 12:33:15;;;;;;;;;;;;;;;23.50;100.00;148624.16;5094484;28;20369;-78
2022/07/06 12:35:44;;;;;;;;;;;;;;;23.65;100.00;148663.94;5087307;28;19976;-78
2022/07/06 12:38:10;;;;;;;;;;;;;;;23.60;100.00;148651.13;5075832;28;20041;-79